sensor_id;sensor_type;location;lat;lon;timestamp;P1;durP1;ratioP1;P2;durP2;ratioP2
11671;SDS011;5892;43.412;24.612;2022-11-28T00:00:10;49.87;;;35.63;;
11671;SDS011;5892;43.412;24.612;2022-11-28T00:02:38;39.43;;;27.50;;
11671;SDS011;5892;43.412;24.612;2022-11-28T00:05:08;37.17;;;27.23;;
11671;SDS011;5892;43.412;24.612;2022-11-28T00:07:35;35.27;;;24.90;;
11671;SDS011;5892;43.412;24.612;2022-11-28T00:10:02;34.27;;;25.87;;
11671;SDS011;5892;43.412;24.612;2022-11-28T00:12:31;36.67;;;25.03;;
11671;SDS011;5892;43.412;24.612;2022-11-28T00:14:59;35.47;;;25.37;;
11671;SDS011;5892;43.412;24.612;2022-11-28T00:17:26;33.17;;;24.70;;
11671;SDS011;5892;43.412;24.612;2022-11-28T00:19:54;33.40;;;24.20;;
11671;SDS011;5892;43.412;24.612;2022-11-28T00:22:21;34.53;;;25.17;;
11671;SDS011;5892;43.412;24.612;2022-11-28T00:24:48;38.10;;;26.40;;
11671;SDS011;5892;43.412;24.612;2022-11-28T00:27:15;38.63;;;27.13;;
11671;SDS011;5892;43.412;24.612;2022-11-28T00:29:44;37.73;;;26.77;;
11671;SDS011;5892;43.412;24.612;2022-11-28T00:32:11;36.47;;;26.57;;
11671;SDS011;5892;43.412;24.612;2022-11-28T00:34:38;40.67;;;27.87;;
11671;SDS011;5892;43.412;24.612;2022-11-28T00:37:05;38.03;;;27.40;;
11671;SDS011;5892;43.412;24.612;2022-11-28T00:39:32;42.27;;;29.57;;
11671;SDS011;5892;43.412;24.612;2022-11-28T00:42:01;41.67;;;29.13;;
11671;SDS011;5892;43.412;24.612;2022-11-28T00:44:30;44.50;;;30.27;;
11671;SDS011;5892;43.412;24.612;2022-11-28T00:46:58;40.10;;;29.40;;
11671;SDS011;5892;43.412;24.612;2022-11-28T00:49:25;40.10;;;29.33;;
11671;SDS011;5892;43.412;24.612;2022-11-28T00:51:52;41.97;;;27.00;;
11671;SDS011;5892;43.412;24.612;2022-11-28T00:54:19;42.27;;;29.60;;
11671;SDS011;5892;43.412;24.612;2022-11-28T00:56:46;39.57;;;27.60;;
11671;SDS011;5892;43.412;24.612;2022-11-28T00:59:13;41.87;;;29.47;;
11671;SDS011;5892;43.412;24.612;2022-11-28T01:01:40;42.47;;;29.80;;
11671;SDS011;5892;43.412;24.612;2022-11-28T01:04:12;39.80;;;29.23;;
11671;SDS011;5892;43.412;24.612;2022-11-28T01:06:42;40.60;;;29.33;;
11671;SDS011;5892;43.412;24.612;2022-11-28T01:09:11;43.20;;;31.13;;
11671;SDS011;5892;43.412;24.612;2022-11-28T01:11:41;43.37;;;30.83;;
11671;SDS011;5892;43.412;24.612;2022-11-28T01:14:09;44.53;;;30.80;;
11671;SDS011;5892;43.412;24.612;2022-11-28T01:16:36;40.33;;;29.30;;
11671;SDS011;5892;43.412;24.612;2022-11-28T01:19:03;40.70;;;29.83;;
11671;SDS011;5892;43.412;24.612;2022-11-28T01:21:32;44.73;;;31.60;;
11671;SDS011;5892;43.412;24.612;2022-11-28T01:23:59;41.43;;;29.60;;
11671;SDS011;5892;43.412;24.612;2022-11-28T01:26:26;43.80;;;31.07;;
11671;SDS011;5892;43.412;24.612;2022-11-28T01:28:55;45.20;;;30.20;;
11671;SDS011;5892;43.412;24.612;2022-11-28T01:31:23;41.30;;;30.33;;
11671;SDS011;5892;43.412;24.612;2022-11-28T01:33:51;43.50;;;30.70;;
11671;SDS011;5892;43.412;24.612;2022-11-28T01:36:18;43.07;;;30.17;;
11671;SDS011;5892;43.412;24.612;2022-11-28T01:38:48;43.50;;;30.97;;
11671;SDS011;5892;43.412;24.612;2022-11-28T01:41:16;39.77;;;29.33;;
11671;SDS011;5892;43.412;24.612;2022-11-28T01:43:59;42.00;;;30.97;;
11671;SDS011;5892;43.412;24.612;2022-11-28T01:46:28;40.83;;;28.27;;
11671;SDS011;5892;43.412;24.612;2022-11-28T01:48:56;41.17;;;30.30;;
11671;SDS011;5892;43.412;24.612;2022-11-28T01:51:26;44.87;;;31.83;;
11671;SDS011;5892;43.412;24.612;2022-11-28T01:53:56;41.00;;;30.70;;
11671;SDS011;5892;43.412;24.612;2022-11-28T01:56:25;44.57;;;31.53;;
11671;SDS011;5892;43.412;24.612;2022-11-28T01:58:57;44.93;;;32.47;;
11671;SDS011;5892;43.412;24.612;2022-11-28T02:01:28;43.30;;;31.77;;
11671;SDS011;5892;43.412;24.612;2022-11-28T02:03:56;44.47;;;31.63;;
11671;SDS011;5892;43.412;24.612;2022-11-28T02:06:24;42.67;;;31.10;;
11671;SDS011;5892;43.412;24.612;2022-11-28T02:08:53;39.40;;;30.27;;
11671;SDS011;5892;43.412;24.612;2022-11-28T02:11:28;43.97;;;30.70;;
11671;SDS011;5892;43.412;24.612;2022-11-28T02:14:09;41.03;;;30.60;;
11671;SDS011;5892;43.412;24.612;2022-11-28T02:16:49;42.53;;;30.53;;
11671;SDS011;5892;43.412;24.612;2022-11-28T02:19:33;39.30;;;29.73;;
11671;SDS011;5892;43.412;24.612;2022-11-28T02:22:23;38.93;;;28.80;;
11671;SDS011;5892;43.412;24.612;2022-11-28T02:25:01;42.70;;;30.57;;
11671;SDS011;5892;43.412;24.612;2022-11-28T02:27:52;41.27;;;29.83;;
11671;SDS011;5892;43.412;24.612;2022-11-28T02:30:32;40.53;;;29.37;;
11671;SDS011;5892;43.412;24.612;2022-11-28T02:33:12;40.63;;;28.90;;
11671;SDS011;5892;43.412;24.612;2022-11-28T02:35:47;42.23;;;29.97;;
11671;SDS011;5892;43.412;24.612;2022-11-28T02:38:21;37.87;;;28.20;;
11671;SDS011;5892;43.412;24.612;2022-11-28T02:41:00;40.03;;;28.57;;
11671;SDS011;5892;43.412;24.612;2022-11-28T02:43:31;41.63;;;29.87;;
11671;SDS011;5892;43.412;24.612;2022-11-28T02:46:09;41.97;;;28.97;;
11671;SDS011;5892;43.412;24.612;2022-11-28T02:48:43;41.37;;;29.83;;
11671;SDS011;5892;43.412;24.612;2022-11-28T02:51:15;40.27;;;29.40;;
11671;SDS011;5892;43.412;24.612;2022-11-28T02:53:47;41.57;;;29.50;;
11671;SDS011;5892;43.412;24.612;2022-11-28T02:56:17;40.37;;;29.93;;
11671;SDS011;5892;43.412;24.612;2022-11-28T02:58:44;42.13;;;30.73;;
11671;SDS011;5892;43.412;24.612;2022-11-28T03:01:13;43.27;;;30.93;;
11671;SDS011;5892;43.412;24.612;2022-11-28T03:06:40;43.67;;;30.87;;
11671;SDS011;5892;43.412;24.612;2022-11-28T03:09:22;42.63;;;31.03;;
11671;SDS011;5892;43.412;24.612;2022-11-28T03:12:02;43.80;;;30.87;;
11671;SDS011;5892;43.412;24.612;2022-11-28T03:14:41;43.83;;;31.53;;
11671;SDS011;5892;43.412;24.612;2022-11-28T03:17:17;44.03;;;31.87;;
11671;SDS011;5892;43.412;24.612;2022-11-28T03:19:53;43.37;;;31.57;;
11671;SDS011;5892;43.412;24.612;2022-11-28T03:22:27;47.57;;;32.97;;
11671;SDS011;5892;43.412;24.612;2022-11-28T03:25:06;42.57;;;30.47;;
11671;SDS011;5892;43.412;24.612;2022-11-28T03:27:42;44.27;;;32.57;;
11671;SDS011;5892;43.412;24.612;2022-11-28T03:30:13;45.23;;;32.10;;
11671;SDS011;5892;43.412;24.612;2022-11-28T03:32:44;47.03;;;33.43;;
11671;SDS011;5892;43.412;24.612;2022-11-28T03:35:17;46.67;;;32.97;;
11671;SDS011;5892;43.412;24.612;2022-11-28T03:37:48;50.10;;;34.00;;
11671;SDS011;5892;43.412;24.612;2022-11-28T03:40:20;44.90;;;32.20;;
11671;SDS011;5892;43.412;24.612;2022-11-28T03:42:52;48.93;;;33.10;;
11671;SDS011;5892;43.412;24.612;2022-11-28T03:45:24;49.13;;;34.27;;
11671;SDS011;5892;43.412;24.612;2022-11-28T03:47:55;49.27;;;34.03;;
11671;SDS011;5892;43.412;24.612;2022-11-28T03:50:28;49.40;;;33.87;;
11671;SDS011;5892;43.412;24.612;2022-11-28T03:52:59;45.47;;;31.37;;
11671;SDS011;5892;43.412;24.612;2022-11-28T03:55:33;50.03;;;34.13;;
11671;SDS011;5892;43.412;24.612;2022-11-28T03:58:06;49.17;;;33.03;;
11671;SDS011;5892;43.412;24.612;2022-11-28T04:00:41;47.93;;;32.50;;
11671;SDS011;5892;43.412;24.612;2022-11-28T04:03:16;45.83;;;31.97;;
11671;SDS011;5892;43.412;24.612;2022-11-28T04:05:56;42.57;;;29.13;;
11671;SDS011;5892;43.412;24.612;2022-11-28T04:08:28;29.53;;;22.07;;
11671;SDS011;5892;43.412;24.612;2022-11-28T04:11:00;34.20;;;24.20;;
11671;SDS011;5892;43.412;24.612;2022-11-28T04:13:34;26.10;;;18.73;;
11671;SDS011;5892;43.412;24.612;2022-11-28T04:16:07;29.93;;;20.60;;
11671;SDS011;5892;43.412;24.612;2022-11-28T04:18:42;20.40;;;15.60;;
11671;SDS011;5892;43.412;24.612;2022-11-28T04:21:19;21.93;;;15.90;;
11671;SDS011;5892;43.412;24.612;2022-11-28T04:23:52;24.37;;;16.47;;
11671;SDS011;5892;43.412;24.612;2022-11-28T04:26:26;21.03;;;15.63;;
11671;SDS011;5892;43.412;24.612;2022-11-28T04:28:55;21.60;;;14.73;;
11671;SDS011;5892;43.412;24.612;2022-11-28T04:31:25;19.90;;;15.33;;
11671;SDS011;5892;43.412;24.612;2022-11-28T04:33:53;21.43;;;15.50;;
11671;SDS011;5892;43.412;24.612;2022-11-28T04:36:25;21.13;;;15.20;;
11671;SDS011;5892;43.412;24.612;2022-11-28T04:38:54;23.47;;;15.87;;
11671;SDS011;5892;43.412;24.612;2022-11-28T04:41:23;22.83;;;15.47;;
11671;SDS011;5892;43.412;24.612;2022-11-28T04:43:58;22.40;;;16.07;;
11671;SDS011;5892;43.412;24.612;2022-11-28T04:46:34;29.20;;;18.07;;
11671;SDS011;5892;43.412;24.612;2022-11-28T04:49:05;21.23;;;15.80;;
11671;SDS011;5892;43.412;24.612;2022-11-28T04:51:35;25.00;;;16.03;;
11671;SDS011;5892;43.412;24.612;2022-11-28T04:54:10;24.57;;;17.97;;
11671;SDS011;5892;43.412;24.612;2022-11-28T04:56:44;21.87;;;16.73;;
11671;SDS011;5892;43.412;24.612;2022-11-28T04:59:15;23.73;;;17.33;;
11671;SDS011;5892;43.412;24.612;2022-11-28T05:01:44;23.00;;;17.03;;
11671;SDS011;5892;43.412;24.612;2022-11-28T05:04:13;23.43;;;16.83;;
11671;SDS011;5892;43.412;24.612;2022-11-28T05:06:42;23.00;;;16.47;;
11671;SDS011;5892;43.412;24.612;2022-11-28T05:09:09;23.43;;;17.17;;
11671;SDS011;5892;43.412;24.612;2022-11-28T05:11:36;28.33;;;18.20;;
11671;SDS011;5892;43.412;24.612;2022-11-28T05:14:04;23.30;;;17.43;;
11671;SDS011;5892;43.412;24.612;2022-11-28T05:16:31;22.70;;;17.70;;
11671;SDS011;5892;43.412;24.612;2022-11-28T05:18:58;26.20;;;18.80;;
11671;SDS011;5892;43.412;24.612;2022-11-28T05:21:25;24.83;;;18.60;;
11671;SDS011;5892;43.412;24.612;2022-11-28T05:23:53;26.10;;;18.73;;
11671;SDS011;5892;43.412;24.612;2022-11-28T05:26:20;28.27;;;20.13;;
11671;SDS011;5892;43.412;24.612;2022-11-28T05:28:48;30.10;;;21.00;;
11671;SDS011;5892;43.412;24.612;2022-11-28T05:31:16;30.10;;;21.67;;
11671;SDS011;5892;43.412;24.612;2022-11-28T05:33:44;33.13;;;23.87;;
11671;SDS011;5892;43.412;24.612;2022-11-28T05:36:11;35.93;;;24.83;;
11671;SDS011;5892;43.412;24.612;2022-11-28T05:38:39;40.00;;;26.30;;
11671;SDS011;5892;43.412;24.612;2022-11-28T05:41:08;38.10;;;24.83;;
11671;SDS011;5892;43.412;24.612;2022-11-28T05:43:46;41.13;;;26.17;;
11671;SDS011;5892;43.412;24.612;2022-11-28T05:46:13;35.97;;;25.53;;
11671;SDS011;5892;43.412;24.612;2022-11-28T05:48:40;40.43;;;27.17;;
11671;SDS011;5892;43.412;24.612;2022-11-28T05:51:07;40.83;;;28.40;;
11671;SDS011;5892;43.412;24.612;2022-11-28T05:53:34;41.10;;;28.20;;
11671;SDS011;5892;43.412;24.612;2022-11-28T05:56:04;39.70;;;26.83;;
11671;SDS011;5892;43.412;24.612;2022-11-28T05:58:34;40.97;;;28.37;;
11671;SDS011;5892;43.412;24.612;2022-11-28T06:01:07;43.00;;;29.17;;
11671;SDS011;5892;43.412;24.612;2022-11-28T06:03:35;41.57;;;28.87;;
11671;SDS011;5892;43.412;24.612;2022-11-28T06:06:02;43.70;;;29.23;;
11671;SDS011;5892;43.412;24.612;2022-11-28T06:08:29;40.67;;;27.57;;
11671;SDS011;5892;43.412;24.612;2022-11-28T06:10:57;40.47;;;28.37;;
11671;SDS011;5892;43.412;24.612;2022-11-28T06:13:24;40.93;;;27.60;;
11671;SDS011;5892;43.412;24.612;2022-11-28T06:15:53;39.67;;;26.97;;
11671;SDS011;5892;43.412;24.612;2022-11-28T06:18:20;39.50;;;28.33;;
11671;SDS011;5892;43.412;24.612;2022-11-28T06:20:47;39.50;;;28.00;;
11671;SDS011;5892;43.412;24.612;2022-11-28T06:23:14;44.30;;;27.97;;
11671;SDS011;5892;43.412;24.612;2022-11-28T06:25:41;40.30;;;26.70;;
11671;SDS011;5892;43.412;24.612;2022-11-28T06:28:08;40.47;;;26.97;;
11671;SDS011;5892;43.412;24.612;2022-11-28T06:30:34;38.90;;;26.93;;
11671;SDS011;5892;43.412;24.612;2022-11-28T06:33:04;40.63;;;27.13;;
11671;SDS011;5892;43.412;24.612;2022-11-28T06:35:31;41.80;;;27.97;;
11671;SDS011;5892;43.412;24.612;2022-11-28T06:37:57;41.90;;;28.33;;
11671;SDS011;5892;43.412;24.612;2022-11-28T06:40:24;42.23;;;29.10;;
11671;SDS011;5892;43.412;24.612;2022-11-28T06:42:51;41.20;;;27.77;;
11671;SDS011;5892;43.412;24.612;2022-11-28T06:45:18;44.53;;;28.17;;
11671;SDS011;5892;43.412;24.612;2022-11-28T06:47:45;46.87;;;29.47;;
11671;SDS011;5892;43.412;24.612;2022-11-28T06:50:13;44.67;;;30.00;;
11671;SDS011;5892;43.412;24.612;2022-11-28T06:52:42;45.47;;;28.93;;
11671;SDS011;5892;43.412;24.612;2022-11-28T06:55:09;46.90;;;30.17;;
11671;SDS011;5892;43.412;24.612;2022-11-28T06:57:36;44.97;;;30.37;;
11671;SDS011;5892;43.412;24.612;2022-11-28T07:00:03;50.23;;;31.30;;
11671;SDS011;5892;43.412;24.612;2022-11-28T07:02:31;44.90;;;27.83;;
11671;SDS011;5892;43.412;24.612;2022-11-28T07:04:58;46.90;;;29.60;;
11671;SDS011;5892;43.412;24.612;2022-11-28T07:07:26;45.87;;;29.23;;
11671;SDS011;5892;43.412;24.612;2022-11-28T07:09:53;45.67;;;29.63;;
11671;SDS011;5892;43.412;24.612;2022-11-28T07:12:20;45.17;;;29.53;;
11671;SDS011;5892;43.412;24.612;2022-11-28T07:14:48;51.23;;;29.73;;
11671;SDS011;5892;43.412;24.612;2022-11-28T07:17:15;50.43;;;31.03;;
11671;SDS011;5892;43.412;24.612;2022-11-28T07:19:43;40.17;;;26.60;;
11671;SDS011;5892;43.412;24.612;2022-11-28T07:22:10;42.30;;;29.07;;
11671;SDS011;5892;43.412;24.612;2022-11-28T07:24:38;44.20;;;29.47;;
11671;SDS011;5892;43.412;24.612;2022-11-28T07:27:05;43.40;;;29.70;;
11671;SDS011;5892;43.412;24.612;2022-11-28T07:29:31;40.03;;;28.27;;
11671;SDS011;5892;43.412;24.612;2022-11-28T07:32:00;40.60;;;26.13;;
11671;SDS011;5892;43.412;24.612;2022-11-28T07:34:29;30.00;;;21.93;;
11671;SDS011;5892;43.412;24.612;2022-11-28T07:36:56;39.37;;;28.40;;
11671;SDS011;5892;43.412;24.612;2022-11-28T07:39:23;38.17;;;26.63;;
11671;SDS011;5892;43.412;24.612;2022-11-28T07:41:52;37.80;;;23.93;;
11671;SDS011;5892;43.412;24.612;2022-11-28T07:44:19;38.40;;;26.37;;
11671;SDS011;5892;43.412;24.612;2022-11-28T07:46:46;37.97;;;25.47;;
11671;SDS011;5892;43.412;24.612;2022-11-28T07:49:13;36.70;;;25.70;;
11671;SDS011;5892;43.412;24.612;2022-11-28T07:51:42;35.50;;;25.80;;
11671;SDS011;5892;43.412;24.612;2022-11-28T07:54:09;40.23;;;26.47;;
11671;SDS011;5892;43.412;24.612;2022-11-28T07:56:36;34.93;;;25.17;;
11671;SDS011;5892;43.412;24.612;2022-11-28T07:59:05;37.40;;;26.10;;
11671;SDS011;5892;43.412;24.612;2022-11-28T08:01:33;38.07;;;26.57;;
11671;SDS011;5892;43.412;24.612;2022-11-28T08:04:01;34.17;;;24.30;;
11671;SDS011;5892;43.412;24.612;2022-11-28T08:06:29;34.63;;;25.10;;
11671;SDS011;5892;43.412;24.612;2022-11-28T08:08:56;31.93;;;22.77;;
11671;SDS011;5892;43.412;24.612;2022-11-28T08:11:26;31.73;;;22.37;;
11671;SDS011;5892;43.412;24.612;2022-11-28T08:13:54;29.53;;;22.00;;
11671;SDS011;5892;43.412;24.612;2022-11-28T08:16:23;30.23;;;22.20;;
11671;SDS011;5892;43.412;24.612;2022-11-28T08:18:51;30.27;;;22.50;;
11671;SDS011;5892;43.412;24.612;2022-11-28T08:21:19;31.03;;;21.10;;
11671;SDS011;5892;43.412;24.612;2022-11-28T08:23:48;29.67;;;22.13;;
11671;SDS011;5892;43.412;24.612;2022-11-28T08:26:17;28.67;;;21.97;;
11671;SDS011;5892;43.412;24.612;2022-11-28T08:28:45;27.00;;;21.03;;
11671;SDS011;5892;43.412;24.612;2022-11-28T08:31:13;27.00;;;20.13;;
11671;SDS011;5892;43.412;24.612;2022-11-28T08:33:44;29.17;;;21.67;;
11671;SDS011;5892;43.412;24.612;2022-11-28T08:36:13;27.67;;;20.37;;
11671;SDS011;5892;43.412;24.612;2022-11-28T08:38:43;25.13;;;17.57;;
11671;SDS011;5892;43.412;24.612;2022-11-28T08:41:12;24.60;;;18.37;;
11671;SDS011;5892;43.412;24.612;2022-11-28T08:43:40;23.00;;;17.00;;
11671;SDS011;5892;43.412;24.612;2022-11-28T08:46:08;23.03;;;18.47;;
11671;SDS011;5892;43.412;24.612;2022-11-28T08:48:37;21.43;;;17.60;;
11671;SDS011;5892;43.412;24.612;2022-11-28T08:51:06;23.53;;;18.87;;
11671;SDS011;5892;43.412;24.612;2022-11-28T08:53:35;22.40;;;17.67;;
11671;SDS011;5892;43.412;24.612;2022-11-28T08:56:01;20.57;;;16.60;;
11671;SDS011;5892;43.412;24.612;2022-11-28T08:58:28;21.17;;;16.30;;
11671;SDS011;5892;43.412;24.612;2022-11-28T09:00:55;22.03;;;15.70;;
11671;SDS011;5892;43.412;24.612;2022-11-28T09:03:22;19.73;;;14.67;;
11671;SDS011;5892;43.412;24.612;2022-11-28T09:05:49;16.07;;;13.53;;
11671;SDS011;5892;43.412;24.612;2022-11-28T09:08:19;18.70;;;13.50;;
11671;SDS011;5892;43.412;24.612;2022-11-28T09:10:46;15.27;;;12.00;;
11671;SDS011;5892;43.412;24.612;2022-11-28T09:13:13;17.10;;;13.57;;
11671;SDS011;5892;43.412;24.612;2022-11-28T09:15:40;19.67;;;14.67;;
11671;SDS011;5892;43.412;24.612;2022-11-28T09:18:08;17.70;;;14.40;;
11671;SDS011;5892;43.412;24.612;2022-11-28T09:20:36;14.73;;;11.80;;
11671;SDS011;5892;43.412;24.612;2022-11-28T09:23:03;14.50;;;11.33;;
11671;SDS011;5892;43.412;24.612;2022-11-28T09:25:34;14.60;;;11.73;;
11671;SDS011;5892;43.412;24.612;2022-11-28T09:28:02;13.40;;;10.83;;
11671;SDS011;5892;43.412;24.612;2022-11-28T09:30:29;12.97;;;10.03;;
11671;SDS011;5892;43.412;24.612;2022-11-28T09:32:56;14.67;;;10.50;;
11671;SDS011;5892;43.412;24.612;2022-11-28T09:35:23;13.27;;;10.30;;
11671;SDS011;5892;43.412;24.612;2022-11-28T09:37:50;12.13;;;10.03;;
11671;SDS011;5892;43.412;24.612;2022-11-28T09:40:17;15.57;;;12.23;;
11671;SDS011;5892;43.412;24.612;2022-11-28T09:42:51;15.73;;;11.50;;
11671;SDS011;5892;43.412;24.612;2022-11-28T09:45:18;13.83;;;11.57;;
11671;SDS011;5892;43.412;24.612;2022-11-28T09:47:48;14.10;;;10.83;;
11671;SDS011;5892;43.412;24.612;2022-11-28T09:50:17;12.33;;;9.90;;
11671;SDS011;5892;43.412;24.612;2022-11-28T09:52:48;11.60;;;8.93;;
11671;SDS011;5892;43.412;24.612;2022-11-28T09:55:22;12.03;;;8.80;;
11671;SDS011;5892;43.412;24.612;2022-11-28T09:57:58;11.13;;;9.23;;
11671;SDS011;5892;43.412;24.612;2022-11-28T10:00:31;17.00;;;13.43;;
11671;SDS011;5892;43.412;24.612;2022-11-28T10:03:06;11.30;;;9.47;;
11671;SDS011;5892;43.412;24.612;2022-11-28T10:05:45;11.17;;;8.63;;
11671;SDS011;5892;43.412;24.612;2022-11-28T10:08:21;13.67;;;8.97;;
11671;SDS011;5892;43.412;24.612;2022-11-28T10:10:57;13.37;;;10.13;;
11671;SDS011;5892;43.412;24.612;2022-11-28T10:13:33;12.57;;;9.40;;
11671;SDS011;5892;43.412;24.612;2022-11-28T10:16:09;13.17;;;9.67;;
11671;SDS011;5892;43.412;24.612;2022-11-28T10:18:44;10.57;;;7.87;;
11671;SDS011;5892;43.412;24.612;2022-11-28T10:21:20;8.80;;;6.73;;
11671;SDS011;5892;43.412;24.612;2022-11-28T10:23:53;11.63;;;9.30;;
11671;SDS011;5892;43.412;24.612;2022-11-28T10:26:26;9.43;;;8.17;;
11671;SDS011;5892;43.412;24.612;2022-11-28T10:28:58;11.47;;;8.80;;
11671;SDS011;5892;43.412;24.612;2022-11-28T10:31:30;11.90;;;9.83;;
11671;SDS011;5892;43.412;24.612;2022-11-28T10:34:01;13.63;;;9.80;;
11671;SDS011;5892;43.412;24.612;2022-11-28T10:36:39;13.43;;;9.47;;
11671;SDS011;5892;43.412;24.612;2022-11-28T10:39:13;9.83;;;8.23;;
11671;SDS011;5892;43.412;24.612;2022-11-28T10:41:43;13.93;;;9.67;;
11671;SDS011;5892;43.412;24.612;2022-11-28T10:44:38;14.57;;;10.67;;
11671;SDS011;5892;43.412;24.612;2022-11-28T10:47:16;11.53;;;8.97;;
11671;SDS011;5892;43.412;24.612;2022-11-28T10:49:56;14.10;;;10.83;;
11671;SDS011;5892;43.412;24.612;2022-11-28T10:52:31;13.23;;;11.00;;
11671;SDS011;5892;43.412;24.612;2022-11-28T10:55:16;10.73;;;9.03;;
11671;SDS011;5892;43.412;24.612;2022-11-28T10:57:53;10.00;;;7.20;;
11671;SDS011;5892;43.412;24.612;2022-11-28T11:00:28;10.13;;;8.10;;
11671;SDS011;5892;43.412;24.612;2022-11-28T11:02:56;11.63;;;8.03;;
11671;SDS011;5892;43.412;24.612;2022-11-28T11:05:28;12.87;;;8.90;;
11671;SDS011;5892;43.412;24.612;2022-11-28T11:07:57;9.70;;;7.47;;
11671;SDS011;5892;43.412;24.612;2022-11-28T11:10:29;10.23;;;7.40;;
11671;SDS011;5892;43.412;24.612;2022-11-28T11:13:09;9.17;;;6.90;;
11671;SDS011;5892;43.412;24.612;2022-11-28T11:15:42;9.07;;;7.07;;
11671;SDS011;5892;43.412;24.612;2022-11-28T11:18:20;8.50;;;6.77;;
11671;SDS011;5892;43.412;24.612;2022-11-28T11:20:48;12.23;;;7.60;;
11671;SDS011;5892;43.412;24.612;2022-11-28T11:23:16;11.87;;;7.67;;
11671;SDS011;5892;43.412;24.612;2022-11-28T11:25:45;9.33;;;7.67;;
11671;SDS011;5892;43.412;24.612;2022-11-28T11:28:25;8.93;;;7.33;;
11671;SDS011;5892;43.412;24.612;2022-11-28T11:31:14;8.90;;;6.70;;
11671;SDS011;5892;43.412;24.612;2022-11-28T11:33:44;12.17;;;8.07;;
11671;SDS011;5892;43.412;24.612;2022-11-28T11:36:25;11.13;;;7.13;;
11671;SDS011;5892;43.412;24.612;2022-11-28T11:39:03;11.20;;;7.63;;
11671;SDS011;5892;43.412;24.612;2022-11-28T11:41:32;8.53;;;6.23;;
11671;SDS011;5892;43.412;24.612;2022-11-28T11:44:20;9.57;;;7.77;;
11671;SDS011;5892;43.412;24.612;2022-11-28T11:46:55;10.60;;;8.00;;
11671;SDS011;5892;43.412;24.612;2022-11-28T11:49:27;11.20;;;7.83;;
11671;SDS011;5892;43.412;24.612;2022-11-28T11:51:56;11.80;;;8.47;;
11671;SDS011;5892;43.412;24.612;2022-11-28T11:54:24;10.60;;;8.37;;
11671;SDS011;5892;43.412;24.612;2022-11-28T11:56:51;11.13;;;8.70;;
11671;SDS011;5892;43.412;24.612;2022-11-28T11:59:19;14.30;;;9.73;;
11671;SDS011;5892;43.412;24.612;2022-11-28T12:01:50;12.77;;;9.63;;
11671;SDS011;5892;43.412;24.612;2022-11-28T12:04:23;11.97;;;9.57;;
11671;SDS011;5892;43.412;24.612;2022-11-28T12:06:55;14.03;;;9.47;;
11671;SDS011;5892;43.412;24.612;2022-11-28T12:09:26;11.23;;;8.93;;
11671;SDS011;5892;43.412;24.612;2022-11-28T12:11:58;14.13;;;10.37;;
11671;SDS011;5892;43.412;24.612;2022-11-28T12:14:31;13.90;;;9.77;;
11671;SDS011;5892;43.412;24.612;2022-11-28T12:17:03;13.07;;;10.43;;
11671;SDS011;5892;43.412;24.612;2022-11-28T12:19:45;14.57;;;11.13;;
11671;SDS011;5892;43.412;24.612;2022-11-28T12:22:20;14.57;;;10.23;;
11671;SDS011;5892;43.412;24.612;2022-11-28T12:24:59;14.97;;;10.23;;
11671;SDS011;5892;43.412;24.612;2022-11-28T12:27:37;14.20;;;9.40;;
11671;SDS011;5892;43.412;24.612;2022-11-28T12:30:20;15.90;;;11.57;;
11671;SDS011;5892;43.412;24.612;2022-11-28T12:32:56;18.30;;;12.67;;
11671;SDS011;5892;43.412;24.612;2022-11-28T12:35:37;14.13;;;11.10;;
11671;SDS011;5892;43.412;24.612;2022-11-28T12:38:08;15.87;;;11.33;;
11671;SDS011;5892;43.412;24.612;2022-11-28T12:40:51;16.03;;;11.57;;
11671;SDS011;5892;43.412;24.612;2022-11-28T12:43:35;15.50;;;12.07;;
11671;SDS011;5892;43.412;24.612;2022-11-28T12:46:12;18.40;;;12.53;;
11671;SDS011;5892;43.412;24.612;2022-11-28T12:48:54;15.60;;;11.67;;
11671;SDS011;5892;43.412;24.612;2022-11-28T12:51:38;15.90;;;11.60;;
11671;SDS011;5892;43.412;24.612;2022-11-28T12:54:26;15.30;;;12.13;;
11671;SDS011;5892;43.412;24.612;2022-11-28T12:57:14;14.50;;;11.40;;
11671;SDS011;5892;43.412;24.612;2022-11-28T12:59:47;12.90;;;10.30;;
11671;SDS011;5892;43.412;24.612;2022-11-28T13:02:24;12.90;;;10.27;;
11671;SDS011;5892;43.412;24.612;2022-11-28T13:05:12;14.93;;;11.27;;
11671;SDS011;5892;43.412;24.612;2022-11-28T13:07:52;18.93;;;11.83;;
11671;SDS011;5892;43.412;24.612;2022-11-28T13:10:34;19.33;;;13.53;;
11671;SDS011;5892;43.412;24.612;2022-11-28T13:13:09;18.47;;;12.47;;
11671;SDS011;5892;43.412;24.612;2022-11-28T13:15:45;15.70;;;11.70;;
11671;SDS011;5892;43.412;24.612;2022-11-28T13:18:27;19.10;;;13.43;;
11671;SDS011;5892;43.412;24.612;2022-11-28T13:21:05;19.57;;;14.40;;
11671;SDS011;5892;43.412;24.612;2022-11-28T13:23:45;18.07;;;13.30;;
11671;SDS011;5892;43.412;24.612;2022-11-28T13:26:23;16.73;;;12.63;;
11671;SDS011;5892;43.412;24.612;2022-11-28T13:29:05;16.47;;;11.13;;
11671;SDS011;5892;43.412;24.612;2022-11-28T13:31:41;16.93;;;12.80;;
11671;SDS011;5892;43.412;24.612;2022-11-28T13:34:16;16.77;;;13.73;;
11671;SDS011;5892;43.412;24.612;2022-11-28T13:36:46;18.37;;;14.37;;
11671;SDS011;5892;43.412;24.612;2022-11-28T13:39:21;17.83;;;13.57;;
11671;SDS011;5892;43.412;24.612;2022-11-28T13:41:58;19.93;;;14.83;;
11671;SDS011;5892;43.412;24.612;2022-11-28T13:44:36;17.03;;;12.53;;
11671;SDS011;5892;43.412;24.612;2022-11-28T13:47:13;17.50;;;12.80;;
11671;SDS011;5892;43.412;24.612;2022-11-28T13:52:56;17.60;;;12.67;;
11671;SDS011;5892;43.412;24.612;2022-11-28T13:55:38;18.80;;;13.40;;
11671;SDS011;5892;43.412;24.612;2022-11-28T13:58:10;17.33;;;13.13;;
11671;SDS011;5892;43.412;24.612;2022-11-28T14:00:43;16.27;;;12.73;;
11671;SDS011;5892;43.412;24.612;2022-11-28T14:03:29;18.50;;;13.37;;
11671;SDS011;5892;43.412;24.612;2022-11-28T14:05:58;17.13;;;13.47;;
11671;SDS011;5892;43.412;24.612;2022-11-28T14:08:29;19.50;;;13.20;;
11671;SDS011;5892;43.412;24.612;2022-11-28T14:14:04;20.30;;;14.37;;
11671;SDS011;5892;43.412;24.612;2022-11-28T14:16:48;19.30;;;14.00;;
11671;SDS011;5892;43.412;24.612;2022-11-28T14:19:28;20.47;;;14.97;;
11671;SDS011;5892;43.412;24.612;2022-11-28T14:22:18;18.13;;;13.97;;
11671;SDS011;5892;43.412;24.612;2022-11-28T14:24:54;20.63;;;15.03;;
11671;SDS011;5892;43.412;24.612;2022-11-28T14:27:25;22.17;;;15.43;;
11671;SDS011;5892;43.412;24.612;2022-11-28T14:29:57;19.47;;;14.43;;
11671;SDS011;5892;43.412;24.612;2022-11-28T14:32:28;22.27;;;15.23;;
11671;SDS011;5892;43.412;24.612;2022-11-28T14:34:59;22.07;;;15.13;;
11671;SDS011;5892;43.412;24.612;2022-11-28T14:37:34;22.27;;;16.63;;
11671;SDS011;5892;43.412;24.612;2022-11-28T14:43:31;24.13;;;16.70;;
11671;SDS011;5892;43.412;24.612;2022-11-28T14:49:07;23.03;;;16.53;;
11671;SDS011;5892;43.412;24.612;2022-11-28T14:54:47;24.53;;;15.83;;
11671;SDS011;5892;43.412;24.612;2022-11-28T14:57:16;27.33;;;19.03;;
11671;SDS011;5892;43.412;24.612;2022-11-28T14:59:45;26.57;;;18.77;;
11671;SDS011;5892;43.412;24.612;2022-11-28T15:05:28;23.90;;;16.43;;
11671;SDS011;5892;43.412;24.612;2022-11-28T15:08:10;25.47;;;18.80;;
11671;SDS011;5892;43.412;24.612;2022-11-28T15:10:48;27.23;;;18.27;;